createdAt,value
2022-10-15T00:01:31.029Z,97977.22
2022-10-15T00:03:58.896Z,97976.84
2022-10-15T00:06:26.660Z,97975.94
2022-10-15T00:08:54.306Z,97965.75
2022-10-15T00:11:23.828Z,97974.22
2022-10-15T00:13:54.281Z,97967.22
2022-10-15T00:16:26.336Z,97967.56
2022-10-15T00:18:57.123Z,97966.25
2022-10-15T00:21:24.994Z,97965.84
2022-10-15T00:23:55.422Z,97959.78
2022-10-15T00:26:24.937Z,97966.34
2022-10-15T00:28:54.714Z,97959.75
2022-10-15T00:31:26.206Z,97960.94
2022-10-15T00:33:56.934Z,97954.91
2022-10-15T00:36:29.420Z,97958.22
2022-10-15T00:38:59.326Z,97955.91
2022-10-15T00:41:30.561Z,97955.25
2022-10-15T00:44:02.033Z,97949.84
2022-10-15T00:46:34.442Z,97951.56
2022-10-15T00:49:12.685Z,97945.91
2022-10-15T00:51:46.136Z,97947.59
2022-10-15T00:54:15.856Z,97943.16
2022-10-15T00:56:45.894Z,97947.34
2022-10-15T00:59:15.332Z,97944.91
2022-10-15T01:01:43.426Z,97940.63
2022-10-15T01:04:12.831Z,97940.25
2022-10-15T01:06:41.143Z,97931.44
2022-10-15T01:09:10.368Z,97935.44
2022-10-15T01:11:43.453Z,97923.13
2022-10-15T01:14:30.825Z,97922.25
2022-10-15T01:17:06.506Z,97919.28
2022-10-15T01:19:58.757Z,97930.34
2022-10-15T01:22:45.846Z,97919.00
2022-10-15T01:25:30.181Z,97921.97
2022-10-15T01:28:07.316Z,97920.66
2022-10-15T01:30:41.014Z,97923.25
2022-10-15T01:33:36.504Z,97920.97
2022-10-15T01:36:13.786Z,97917.28
2022-10-15T01:38:56.474Z,97911.28
2022-10-15T01:41:32.107Z,97918.09
2022-10-15T01:44:03.520Z,97912.97
2022-10-15T01:47:13.007Z,97915.56
2022-10-15T01:49:44.984Z,97902.56
2022-10-15T01:52:17.796Z,97905.06
2022-10-15T01:54:48.394Z,97900.94
2022-10-15T01:57:19.187Z,97896.34
2022-10-15T01:59:49.151Z,97903.00
2022-10-15T02:02:20.704Z,97896.53
2022-10-15T02:04:48.740Z,97899.00
2022-10-15T02:07:31.888Z,97900.56
2022-10-15T02:10:07.668Z,97913.34
2022-10-15T02:12:47.310Z,97907.56
2022-10-15T02:15:20.336Z,97903.50
2022-10-15T02:17:59.820Z,97897.34
2022-10-15T02:20:36.658Z,97897.34
2022-10-15T02:23:11.116Z,97911.75
2022-10-15T02:25:41.241Z,97903.66
2022-10-15T02:28:12.745Z,97911.28
2022-10-15T02:30:49.181Z,97903.13
2022-10-15T02:33:20.638Z,97909.00
2022-10-15T02:35:51.399Z,97908.94
2022-10-15T02:38:22.260Z,97910.94
2022-10-15T02:40:51.819Z,97919.50
2022-10-15T02:43:22.106Z,97925.91
2022-10-15T02:45:52.023Z,97909.16
2022-10-15T02:48:22.916Z,97916.53
2022-10-15T02:50:50.941Z,97919.97
2022-10-15T02:53:18.610Z,97921.63
2022-10-15T02:55:47.017Z,97918.69
2022-10-15T02:58:14.865Z,97918.91
2022-10-15T03:00:44.758Z,97924.59
2022-10-15T03:03:13.827Z,97920.78
2022-10-15T03:05:44.174Z,97924.63
2022-10-15T03:08:11.891Z,97923.09
2022-10-15T03:10:39.967Z,97929.31
2022-10-15T03:13:07.931Z,97933.66
2022-10-15T03:15:43.245Z,97935.50
2022-10-15T03:18:11.282Z,97928.78
2022-10-15T03:20:39.620Z,97930.09
2022-10-15T03:23:08.679Z,97927.94
2022-10-15T03:25:36.436Z,97928.25
2022-10-15T03:28:05.953Z,97927.47
2022-10-15T03:30:40.566Z,97922.34
2022-10-15T03:33:08.966Z,97928.28
2022-10-15T03:35:37.516Z,97927.81
2022-10-15T03:38:08.183Z,97933.16
2022-10-15T03:40:36.837Z,97932.75
2022-10-15T03:43:25.195Z,97942.31
2022-10-15T03:45:54.233Z,97930.25
2022-10-15T03:48:24.657Z,97934.22
2022-10-15T03:50:52.734Z,97938.19
2022-10-15T03:53:22.271Z,97947.84
2022-10-15T03:55:50.755Z,97947.31
2022-10-15T03:58:18.482Z,97950.63
2022-10-15T04:00:54.256Z,97954.78
2022-10-15T04:03:22.262Z,97962.03
2022-10-15T04:05:54.037Z,97964.75
2022-10-15T04:08:26.173Z,97954.78
2022-10-15T04:10:54.208Z,97964.75
2022-10-15T04:13:22.083Z,97961.72
2022-10-15T04:15:49.747Z,97959.66
2022-10-15T04:18:17.759Z,97966.00
2022-10-15T04:20:49.588Z,97972.19
2022-10-15T04:23:22.257Z,97964.47
2022-10-15T04:26:21.413Z,97974.63
2022-10-15T04:28:49.991Z,97982.66
2022-10-15T04:31:19.637Z,97978.19
2022-10-15T04:33:49.367Z,97976.06
2022-10-15T04:38:58.717Z,97977.31
2022-10-15T04:41:34.561Z,97979.44
2022-10-15T04:44:09.275Z,97981.91
2022-10-15T04:46:38.787Z,97978.88
2022-10-15T04:49:29.367Z,97978.97
2022-10-15T04:51:57.626Z,97984.31
2022-10-15T04:54:30.699Z,97984.16
2022-10-15T04:57:06.616Z,97991.44
2022-10-15T04:59:34.706Z,97990.97
2022-10-15T05:02:21.316Z,97995.66
2022-10-15T05:04:55.088Z,98002.41
2022-10-15T05:07:23.623Z,97994.19
2022-10-15T05:09:55.131Z,97991.63
2022-10-15T05:12:24.238Z,97993.47
2022-10-15T05:14:53.354Z,98002.53
2022-10-15T05:17:27.421Z,98006.00
2022-10-15T05:19:56.090Z,98014.03
2022-10-15T05:22:27.619Z,98013.75
2022-10-15T05:24:59.424Z,98017.06
2022-10-15T05:27:36.276Z,98023.09
2022-10-15T05:30:07.009Z,98026.41
2022-10-15T05:32:44.222Z,98027.25
2022-10-15T05:35:16.879Z,98030.09
2022-10-15T05:38:00.690Z,98030.78
2022-10-15T05:40:28.770Z,98030.09
2022-10-15T05:43:06.697Z,98033.44
2022-10-15T05:45:34.527Z,98044.31
2022-10-15T05:48:07.785Z,98043.31
2022-10-15T05:50:36.520Z,98040.16
2022-10-15T05:53:08.229Z,98037.97
2022-10-15T05:55:47.225Z,98030.63
2022-10-15T05:58:16.367Z,98034.97
2022-10-15T06:00:46.149Z,98046.03
2022-10-15T06:03:15.256Z,98052.31
2022-10-15T06:05:42.935Z,98054.00
2022-10-15T06:08:10.638Z,98061.03
2022-10-15T06:10:38.760Z,98065.28
2022-10-15T06:13:10.165Z,98067.31
2022-10-15T06:15:42.002Z,98069.66
2022-10-15T06:18:11.113Z,98074.81
2022-10-15T06:20:41.174Z,98075.28
2022-10-15T06:23:09.041Z,98080.28
2022-10-15T06:25:36.922Z,98089.53
2022-10-15T06:28:06.034Z,98093.13
2022-10-15T06:30:43.908Z,98095.75
2022-10-15T06:35:44.409Z,98091.66
2022-10-15T06:38:14.055Z,98105.63
2022-10-15T06:40:41.764Z,98116.75
2022-10-15T06:43:11.670Z,98124.09
2022-10-15T06:45:42.402Z,98132.63
2022-10-15T06:48:19.479Z,98128.59
2022-10-15T06:50:47.243Z,98127.19
2022-10-15T06:53:16.638Z,98132.47
2022-10-15T06:55:44.475Z,98137.38
2022-10-15T06:58:12.183Z,98137.47
2022-10-15T07:00:39.888Z,98141.97
2022-10-15T07:03:08.706Z,98144.66
2022-10-15T07:05:37.857Z,98147.78
2022-10-15T07:08:06.164Z,98145.88
2022-10-15T07:10:34.023Z,98157.38
2022-10-15T07:13:02.954Z,98164.41
2022-10-15T07:15:30.742Z,98155.69
2022-10-15T07:18:01.439Z,98168.72
2022-10-15T07:20:30.239Z,98170.84
2022-10-15T07:23:02.222Z,98176.69
2022-10-15T07:25:35.022Z,98169.97
2022-10-15T07:28:03.002Z,98175.00
2022-10-15T07:30:30.722Z,98172.31
2022-10-15T07:32:59.260Z,98171.72
2022-10-15T07:35:27.218Z,98178.00
2022-10-15T07:37:55.075Z,98178.63
2022-10-15T07:40:24.219Z,98191.97
2022-10-15T07:42:55.426Z,98192.53
2022-10-15T07:45:24.621Z,98193.63
2022-10-15T07:47:52.822Z,98193.31
2022-10-15T07:50:20.850Z,98185.28
2022-10-15T07:52:48.961Z,98184.69
2022-10-15T07:55:16.974Z,98200.63
2022-10-15T07:57:46.076Z,98193.50
2022-10-15T08:00:14.232Z,98207.00
2022-10-15T08:02:44.003Z,98203.78
2022-10-15T08:05:11.762Z,98213.06
2022-10-15T08:07:41.841Z,98217.00
2022-10-15T08:10:13.371Z,98221.13
2022-10-15T08:12:41.077Z,98223.81
2022-10-15T08:15:11.317Z,98223.72
2022-10-15T08:17:41.351Z,98221.28
2022-10-15T08:20:11.316Z,98220.22
2022-10-15T08:22:39.290Z,98215.63
2022-10-15T08:25:07.627Z,98218.03
2022-10-15T08:27:35.331Z,98215.88
2022-10-15T08:30:05.665Z,98203.88
2022-10-15T08:32:37.157Z,98207.84
2022-10-15T08:35:05.139Z,98212.84
2022-10-15T08:37:33.417Z,98215.00
2022-10-15T08:40:01.157Z,98209.34
2022-10-15T08:42:36.826Z,98212.31
2022-10-15T08:45:08.868Z,98224.94
2022-10-15T08:47:46.937Z,98227.19
2022-10-15T08:50:25.731Z,98225.44
2022-10-15T08:52:59.426Z,98225.78
2022-10-15T08:55:35.536Z,98227.13
2022-10-15T08:58:13.871Z,98229.88
2022-10-15T09:00:44.939Z,98220.94
2022-10-15T09:03:33.026Z,98226.53
2022-10-15T09:06:10.734Z,98227.84
2022-10-15T09:08:48.950Z,98223.47
2022-10-15T09:11:23.589Z,98230.22
2022-10-15T09:13:51.854Z,98230.66
2022-10-15T09:16:28.810Z,98238.69
2022-10-15T09:19:01.593Z,98226.72
2022-10-15T09:21:30.476Z,98238.19
2022-10-15T09:24:03.411Z,98227.88
2022-10-15T09:26:36.906Z,98230.47
2022-10-15T09:29:16.738Z,98236.31
2022-10-15T09:31:50.090Z,98241.63
2022-10-15T09:34:27.920Z,98247.91
2022-10-15T09:36:59.446Z,98237.91
2022-10-15T09:39:41.312Z,98249.97
2022-10-15T09:42:20.850Z,98246.19
2022-10-15T09:44:52.817Z,98254.06
2022-10-15T09:47:25.720Z,98257.03
2022-10-15T09:50:02.763Z,98245.81
2022-10-15T09:52:46.557Z,98251.03
2022-10-15T09:55:30.753Z,98254.25
2022-10-15T09:58:02.855Z,98253.75
2022-10-15T10:00:54.536Z,98258.97
2022-10-15T10:03:26.352Z,98256.72
2022-10-15T10:06:03.717Z,98259.69
2022-10-15T10:08:40.544Z,98263.50
2022-10-15T10:11:12.866Z,98264.34
2022-10-15T10:13:50.814Z,98253.41
2022-10-15T10:16:20.286Z,98262.75
2022-10-15T10:19:04.770Z,98262.69
2022-10-15T10:21:35.650Z,98256.91
2022-10-15T10:24:20.187Z,98260.91
2022-10-15T10:26:49.065Z,98264.31
2022-10-15T10:29:36.560Z,98267.66
2022-10-15T10:32:12.197Z,98269.50
2022-10-15T10:34:40.173Z,98269.63
2022-10-15T10:37:11.412Z,98268.69
2022-10-15T10:39:39.282Z,98267.84
2022-10-15T10:42:25.713Z,98261.66
2022-10-15T10:44:54.568Z,98265.59
2022-10-15T10:47:24.342Z,98272.28
2022-10-15T10:49:57.844Z,98275.59
2022-10-15T10:52:29.836Z,98277.22
2022-10-15T10:55:02.863Z,98272.09
2022-10-15T10:57:42.159Z,98267.94
2022-10-15T11:00:16.296Z,98274.13
2022-10-15T11:02:48.622Z,98266.91
2022-10-15T11:05:22.756Z,98262.91
2022-10-15T11:08:00.006Z,98263.19
2022-10-15T11:10:35.154Z,98273.03
2022-10-15T11:13:17.908Z,98267.31
2022-10-15T11:15:55.263Z,98267.09
2022-10-15T11:18:35.679Z,98265.72
2022-10-15T11:21:11.774Z,98263.47
2022-10-15T11:23:57.342Z,98260.38
2022-10-15T11:26:46.029Z,98257.72
2022-10-15T11:29:30.979Z,98255.88
2022-10-15T11:32:15.217Z,98253.88
2022-10-15T11:35:01.223Z,98253.47
2022-10-15T11:37:42.895Z,98261.53
2022-10-15T11:40:21.751Z,98244.66
2022-10-15T11:42:57.213Z,98252.38
2022-10-15T11:45:48.540Z,98248.09
2022-10-15T11:48:23.319Z,98249.16
2022-10-15T11:50:57.057Z,98244.53
2022-10-15T11:53:57.493Z,98234.53
2022-10-15T11:56:34.951Z,98219.75
2022-10-15T11:59:18.557Z,98241.78
2022-10-15T12:01:50.820Z,98231.19
2022-10-15T12:04:30.387Z,98233.19
2022-10-15T12:07:05.948Z,98229.06
2022-10-15T12:09:38.253Z,98226.78
2022-10-15T12:12:13.091Z,98224.56
2022-10-15T12:14:49.931Z,98227.66
2022-10-15T12:17:24.086Z,98226.28
2022-10-15T12:19:56.322Z,98219.78
2022-10-15T12:22:35.922Z,98223.53
2022-10-15T12:25:03.975Z,98219.38
2022-10-15T12:27:36.815Z,98232.81
2022-10-15T12:30:22.836Z,98236.53
2022-10-15T12:32:51.241Z,98229.50
2022-10-15T12:35:37.823Z,98224.69
2022-10-15T12:38:26.233Z,98229.59
2022-10-15T12:41:03.849Z,98228.13
2022-10-15T12:43:36.768Z,98229.50
2022-10-15T12:46:06.762Z,98229.91
2022-10-15T12:48:39.851Z,98222.50
2022-10-15T12:51:41.306Z,98224.28
2022-10-15T12:54:39.156Z,98205.56
2022-10-15T12:57:44.582Z,98215.75
2022-10-15T13:00:40.775Z,98208.25
2022-10-15T13:03:35.682Z,98208.00
2022-10-15T13:06:24.811Z,98210.75
2022-10-15T13:08:55.106Z,98210.19
2022-10-15T13:11:26.384Z,98204.53
2022-10-15T13:14:03.285Z,98211.03
2022-10-15T13:16:32.580Z,98215.09
2022-10-15T13:19:00.796Z,98216.22
2022-10-15T13:21:50.630Z,98217.41
2022-10-15T13:24:20.497Z,98217.50
2022-10-15T13:26:48.275Z,98219.34
2022-10-15T13:29:19.365Z,98217.59
2022-10-15T13:31:49.073Z,98223.13
2022-10-15T13:34:27.186Z,98227.88
2022-10-15T13:36:57.604Z,98227.44
2022-10-15T13:39:31.107Z,98225.66
2022-10-15T13:42:09.896Z,98226.47
2022-10-15T13:44:37.687Z,98220.84
2022-10-15T13:47:25.700Z,98216.94
2022-10-15T13:50:11.177Z,98228.16
2022-10-15T13:52:41.466Z,98232.31
2022-10-15T13:55:18.470Z,98223.97
2022-10-15T13:57:47.445Z,98221.94
2022-10-15T14:00:24.557Z,98228.41
2022-10-15T14:03:10.633Z,98229.50
2022-10-15T14:05:38.376Z,98230.28
2022-10-15T14:08:16.536Z,98227.31
2022-10-15T14:10:44.513Z,98237.91
2022-10-15T14:13:12.858Z,98232.31
2022-10-15T14:15:47.476Z,98231.44
2022-10-15T14:18:19.668Z,98235.84
2022-10-15T14:20:48.795Z,98238.13
2022-10-15T14:23:18.629Z,98234.28
2022-10-15T14:25:46.472Z,98226.22
2022-10-15T14:28:22.104Z,98232.13
2022-10-15T14:30:49.952Z,98224.84
2022-10-15T14:33:42.421Z,98226.88
2022-10-15T14:36:24.676Z,98224.72
2022-10-15T14:38:53.649Z,98220.38
2022-10-15T14:41:30.366Z,98229.72
2022-10-15T14:44:03.816Z,98226.94
2022-10-15T14:46:38.186Z,98233.75
2022-10-15T14:49:27.550Z,98227.38
2022-10-15T14:52:03.300Z,98221.56
2022-10-15T14:54:40.712Z,98213.13
2022-10-15T14:57:18.755Z,98209.31
2022-10-15T14:59:46.669Z,98219.78
2022-10-15T15:02:17.681Z,98208.75
2022-10-15T15:05:08.798Z,98215.38
2022-10-15T15:07:36.528Z,98216.00
2022-10-15T15:10:05.390Z,98212.53
2022-10-15T15:12:34.315Z,98209.44
2022-10-15T15:15:02.524Z,98214.81
2022-10-15T15:17:31.393Z,98199.84
2022-10-15T15:22:38.628Z,98206.03
2022-10-15T15:25:15.124Z,98206.59
2022-10-15T15:27:45.548Z,98208.94
2022-10-15T15:30:19.002Z,98210.44
2022-10-15T15:32:47.981Z,98214.75
2022-10-15T15:35:22.151Z,98212.13
2022-10-15T15:37:51.970Z,98210.56
2022-10-15T15:40:22.615Z,98218.19
2022-10-15T15:42:51.555Z,98201.97
2022-10-15T15:45:22.257Z,98217.41
2022-10-15T15:47:50.336Z,98206.59
2022-10-15T15:50:21.712Z,98212.97
2022-10-15T15:52:49.434Z,98200.31
2022-10-15T15:55:18.080Z,98198.91
2022-10-15T15:57:48.293Z,98193.81
2022-10-15T16:00:16.835Z,98208.72
2022-10-15T16:02:45.092Z,98206.16
2022-10-15T16:05:15.871Z,98213.72
2022-10-15T16:07:45.614Z,98215.16
2022-10-15T16:10:15.504Z,98219.66
2022-10-15T16:12:43.982Z,98224.06
2022-10-15T16:15:14.666Z,98228.41
2022-10-15T16:17:43.549Z,98245.13
2022-10-15T16:20:12.827Z,98236.38
2022-10-15T16:22:40.569Z,98234.94
2022-10-15T16:25:10.520Z,98235.25
2022-10-15T16:27:38.255Z,98242.31
2022-10-15T16:30:07.100Z,98249.44
2022-10-15T16:32:34.845Z,98253.16
2022-10-15T16:35:02.897Z,98251.25
2022-10-15T16:37:30.606Z,98243.09
2022-10-15T16:39:58.551Z,98259.13
2022-10-15T16:42:27.839Z,98262.94
2022-10-15T16:44:55.561Z,98264.19
2022-10-15T16:47:23.517Z,98267.88
2022-10-15T16:49:51.459Z,98265.28
2022-10-15T16:52:19.292Z,98272.13
2022-10-15T16:54:47.454Z,98270.56
2022-10-15T16:57:15.347Z,98275.69
2022-10-15T16:59:46.878Z,98278.97
2022-10-15T17:02:14.672Z,98284.72
2022-10-15T17:04:42.551Z,98294.06
2022-10-15T17:07:10.215Z,98289.38
2022-10-15T17:09:37.977Z,98301.31
2022-10-15T17:12:06.237Z,98314.84
2022-10-15T17:14:34.119Z,98321.03
2022-10-15T17:17:03.336Z,98318.22
2022-10-15T17:19:34.310Z,98321.69
2022-10-15T17:22:02.189Z,98334.88
2022-10-15T17:24:29.980Z,98326.94
2022-10-15T17:26:58.830Z,98326.56
2022-10-15T17:29:29.215Z,98336.97
2022-10-15T17:32:03.384Z,98331.91
2022-10-15T17:34:31.108Z,98322.56
2022-10-15T17:36:58.842Z,98328.41
2022-10-15T17:39:26.688Z,98342.97
2022-10-15T17:41:54.870Z,98341.88
2022-10-15T17:44:22.695Z,98347.16
2022-10-15T17:46:52.451Z,98344.16
2022-10-15T17:49:24.842Z,98349.28
2022-10-15T17:51:52.754Z,98349.97
2022-10-15T17:54:20.609Z,98356.97
2022-10-15T17:56:49.443Z,98349.97
2022-10-15T17:59:17.221Z,98361.69
2022-10-15T18:01:57.915Z,98358.84
2022-10-15T18:04:29.079Z,98359.63
2022-10-15T18:06:56.965Z,98362.63
2022-10-15T18:09:25.153Z,98362.63
2022-10-15T18:11:56.060Z,98356.31
2022-10-15T18:14:28.382Z,98361.81
2022-10-15T18:16:56.114Z,98363.25
2022-10-15T18:19:26.708Z,98364.56
2022-10-15T18:21:58.821Z,98362.41
2022-10-15T18:24:28.703Z,98364.84
2022-10-15T18:26:56.452Z,98365.41
2022-10-15T18:29:25.491Z,98359.84
2022-10-15T18:31:57.597Z,98361.41
2022-10-15T18:34:33.101Z,98374.88
2022-10-15T18:37:05.941Z,98374.09
2022-10-15T18:39:34.931Z,98369.13
2022-10-15T18:42:02.670Z,98354.63
2022-10-15T18:44:30.430Z,98351.00
2022-10-15T18:46:58.197Z,98361.78
2022-10-15T18:49:25.935Z,98362.72
2022-10-15T18:51:55.233Z,98364.66
2022-10-15T18:54:24.558Z,98361.22
2022-10-15T18:56:53.475Z,98362.63
2022-10-15T18:59:21.751Z,98364.16
2022-10-15T19:01:50.118Z,98377.41
2022-10-15T19:04:19.755Z,98364.13
2022-10-15T19:06:49.303Z,98370.91
2022-10-15T19:09:22.387Z,98375.72
2022-10-15T19:11:55.568Z,98383.22
2022-10-15T19:14:24.021Z,98379.81
2022-10-15T19:16:54.152Z,98378.28
2022-10-15T19:19:23.708Z,98391.69
2022-10-15T19:21:57.891Z,98392.31
2022-10-15T19:24:25.620Z,98395.97
2022-10-15T19:26:55.039Z,98381.56
2022-10-15T19:29:22.884Z,98381.13
2022-10-15T19:31:53.664Z,98379.81
2022-10-15T19:34:22.677Z,98383.28
2022-10-15T19:36:51.121Z,98390.78
2022-10-15T19:39:21.897Z,98391.25
2022-10-15T19:41:50.945Z,98405.78
2022-10-15T19:44:24.935Z,98394.97
2022-10-15T19:46:53.130Z,98389.47
2022-10-15T19:49:21.029Z,98391.25
2022-10-15T19:51:49.204Z,98387.09
2022-10-15T19:54:17.291Z,98386.25
2022-10-15T19:56:46.118Z,98380.75
2022-10-15T19:59:13.974Z,98386.44
2022-10-15T20:01:43.114Z,98386.50
2022-10-15T20:04:10.956Z,98392.25
2022-10-15T20:06:39.422Z,98389.81
2022-10-15T20:09:08.618Z,98398.34
2022-10-15T20:11:37.191Z,98398.84
2022-10-15T20:14:08.282Z,98410.00
2022-10-15T20:16:36.098Z,98420.13
2022-10-15T20:19:06.306Z,98430.06
2022-10-15T20:21:34.338Z,98429.75
2022-10-15T20:24:04.439Z,98424.84
2022-10-15T20:26:32.843Z,98428.75
2022-10-15T20:29:00.969Z,98435.72
2022-10-15T20:31:32.662Z,98452.44
2022-10-15T20:34:05.191Z,98445.94
2022-10-15T20:36:33.013Z,98448.13
2022-10-15T20:39:01.797Z,98447.56
2022-10-15T20:41:31.965Z,98452.84
2022-10-15T20:44:00.095Z,98451.81
2022-10-15T20:46:32.669Z,98454.69
2022-10-15T20:49:07.796Z,98454.69
2022-10-15T20:51:40.470Z,98460.50
2022-10-15T20:54:08.714Z,98453.50
2022-10-15T20:56:36.659Z,98450.66
2022-10-15T20:59:05.195Z,98468.91
2022-10-15T21:01:33.839Z,98456.22
2022-10-15T21:04:02.075Z,98454.66
2022-10-15T21:06:30.461Z,98465.28
2022-10-15T21:08:59.649Z,98468.22
2022-10-15T21:11:27.625Z,98472.81
2022-10-15T21:13:57.909Z,98462.66
2022-10-15T21:16:28.584Z,98477.53
2022-10-15T21:18:58.574Z,98478.91
2022-10-15T21:21:26.358Z,98476.84
2022-10-15T21:23:54.074Z,98473.31
2022-10-15T21:26:23.230Z,98482.66
2022-10-15T21:28:55.716Z,98482.97
2022-10-15T21:31:23.587Z,98477.31
2022-10-15T21:33:51.781Z,98475.78
2022-10-15T21:36:21.978Z,98482.34
2022-10-15T21:38:53.102Z,98474.94
2022-10-15T21:41:21.098Z,98471.94
2022-10-15T21:46:22.832Z,98491.19
2022-10-15T21:48:51.134Z,98499.66
2022-10-15T21:51:24.704Z,98493.78
2022-10-15T21:53:52.802Z,98494.44
2022-10-15T21:56:20.733Z,98486.72
2022-10-15T21:58:49.781Z,98488.72
2022-10-15T22:01:20.778Z,98486.31
2022-10-15T22:03:49.732Z,98478.25
2022-10-15T22:06:18.301Z,98483.56
2022-10-15T22:08:46.694Z,98482.44
2022-10-15T22:11:16.792Z,98481.47
2022-10-15T22:13:46.703Z,98481.81
2022-10-15T22:16:18.287Z,98491.94
2022-10-15T22:18:46.414Z,98479.38
2022-10-15T22:21:16.183Z,98479.72
2022-10-15T22:23:45.071Z,98480.00
2022-10-15T22:26:13.251Z,98485.22
2022-10-15T22:28:41.911Z,98490.69
2022-10-15T22:31:17.509Z,98494.06
2022-10-15T22:33:46.692Z,98491.19
2022-10-15T22:36:16.408Z,98489.22
2022-10-15T22:38:46.503Z,98487.75
2022-10-15T22:41:14.798Z,98507.13
2022-10-15T22:43:43.416Z,98496.06
2022-10-15T22:46:11.586Z,98503.09
2022-10-15T22:48:43.100Z,98513.78
2022-10-15T22:51:13.588Z,98522.84
2022-10-15T22:53:41.658Z,98511.47
2022-10-15T22:56:14.198Z,98516.09
2022-10-15T22:58:42.523Z,98518.28
2022-10-15T23:01:11.834Z,98521.84
2022-10-15T23:03:41.652Z,98520.16
2022-10-15T23:06:09.763Z,98510.75
2022-10-15T23:08:37.896Z,98512.41
2022-10-15T23:11:10.814Z,98514.47
2022-10-15T23:13:39.366Z,98509.09
2022-10-15T23:16:09.680Z,98509.72
2022-10-15T23:18:37.738Z,98506.03
2022-10-15T23:21:11.593Z,98500.50
2022-10-15T23:23:39.322Z,98510.34
2022-10-15T23:26:07.509Z,98519.25
2022-10-15T23:28:35.350Z,98504.44
2022-10-15T23:31:03.144Z,98511.47
2022-10-15T23:33:30.889Z,98514.16
2022-10-15T23:36:03.983Z,98513.19
2022-10-15T23:38:33.207Z,98508.31
2022-10-15T23:41:02.581Z,98509.97
2022-10-15T23:43:30.951Z,98516.31
2022-10-15T23:45:59.002Z,98507.94
2022-10-15T23:48:27.409Z,98514.81
2022-10-15T23:51:00.697Z,98519.81
2022-10-15T23:53:33.927Z,98531.00
2022-10-15T23:56:02.793Z,98538.56
2022-10-15T23:58:31.993Z,98542.28
